sensor_id;sensor_type;location;lat;lon;timestamp;P1;durP1;ratioP1;P2;durP2;ratioP2
8755;SDS011;4414;42.670;23.228;2022-07-23T00:01:19;5.85;;;5.00;;
8755;SDS011;4414;42.670;23.228;2022-07-23T00:03:46;5.00;;;4.47;;
8755;SDS011;4414;42.670;23.228;2022-07-23T00:06:13;6.30;;;4.95;;
8755;SDS011;4414;42.670;23.228;2022-07-23T00:08:40;8.60;;;5.20;;
8755;SDS011;4414;42.670;23.228;2022-07-23T00:11:06;7.97;;;5.22;;
8755;SDS011;4414;42.670;23.228;2022-07-23T00:13:33;6.93;;;5.15;;
8755;SDS011;4414;42.670;23.228;2022-07-23T00:16:00;7.35;;;5.22;;
8755;SDS011;4414;42.670;23.228;2022-07-23T00:18:28;7.63;;;5.25;;
8755;SDS011;4414;42.670;23.228;2022-07-23T00:20:55;6.95;;;5.45;;
8755;SDS011;4414;42.670;23.228;2022-07-23T00:23:22;8.93;;;5.80;;
8755;SDS011;4414;42.670;23.228;2022-07-23T00:25:50;5.70;;;5.15;;
8755;SDS011;4414;42.670;23.228;2022-07-23T00:28:17;6.88;;;4.75;;
8755;SDS011;4414;42.670;23.228;2022-07-23T00:30:44;7.53;;;5.40;;
8755;SDS011;4414;42.670;23.228;2022-07-23T00:33:11;6.80;;;5.80;;
8755;SDS011;4414;42.670;23.228;2022-07-23T00:35:40;6.70;;;5.85;;
8755;SDS011;4414;42.670;23.228;2022-07-23T00:38:08;6.47;;;5.50;;
8755;SDS011;4414;42.670;23.228;2022-07-23T00:40:36;7.55;;;5.90;;
8755;SDS011;4414;42.670;23.228;2022-07-23T00:43:03;8.73;;;5.45;;
8755;SDS011;4414;42.670;23.228;2022-07-23T00:45:30;6.30;;;5.47;;
8755;SDS011;4414;42.670;23.228;2022-07-23T00:47:58;7.95;;;5.45;;
8755;SDS011;4414;42.670;23.228;2022-07-23T00:50:25;7.40;;;5.72;;
8755;SDS011;4414;42.670;23.228;2022-07-23T00:52:53;6.20;;;5.60;;
8755;SDS011;4414;42.670;23.228;2022-07-23T00:55:20;8.02;;;5.60;;
8755;SDS011;4414;42.670;23.228;2022-07-23T00:57:47;6.40;;;5.75;;
8755;SDS011;4414;42.670;23.228;2022-07-23T01:00:14;6.50;;;5.53;;
8755;SDS011;4414;42.670;23.228;2022-07-23T01:02:41;8.68;;;5.75;;
8755;SDS011;4414;42.670;23.228;2022-07-23T01:05:09;10.43;;;5.70;;
8755;SDS011;4414;42.670;23.228;2022-07-23T01:07:36;7.53;;;6.03;;
8755;SDS011;4414;42.670;23.228;2022-07-23T01:10:04;11.52;;;6.25;;
8755;SDS011;4414;42.670;23.228;2022-07-23T01:12:52;7.25;;;5.35;;
8755;SDS011;4414;42.670;23.228;2022-07-23T01:15:19;8.13;;;5.53;;
8755;SDS011;4414;42.670;23.228;2022-07-23T01:17:46;9.75;;;6.22;;
8755;SDS011;4414;42.670;23.228;2022-07-23T01:20:12;10.50;;;6.20;;
8755;SDS011;4414;42.670;23.228;2022-07-23T01:22:41;7.03;;;5.75;;
8755;SDS011;4414;42.670;23.228;2022-07-23T01:25:08;6.20;;;5.10;;
8755;SDS011;4414;42.670;23.228;2022-07-23T01:27:35;5.50;;;4.60;;
8755;SDS011;4414;42.670;23.228;2022-07-23T01:30:02;8.15;;;5.35;;
8755;SDS011;4414;42.670;23.228;2022-07-23T01:32:30;7.60;;;5.30;;
8755;SDS011;4414;42.670;23.228;2022-07-23T01:34:57;7.18;;;5.22;;
8755;SDS011;4414;42.670;23.228;2022-07-23T01:37:23;5.30;;;4.78;;
8755;SDS011;4414;42.670;23.228;2022-07-23T01:39:52;5.32;;;4.68;;
8755;SDS011;4414;42.670;23.228;2022-07-23T01:42:18;9.30;;;5.13;;
8755;SDS011;4414;42.670;23.228;2022-07-23T01:44:45;6.60;;;4.88;;
8755;SDS011;4414;42.670;23.228;2022-07-23T01:47:12;7.43;;;5.47;;
8755;SDS011;4414;42.670;23.228;2022-07-23T01:49:39;10.45;;;5.82;;
8755;SDS011;4414;42.670;23.228;2022-07-23T01:52:05;11.30;;;6.05;;
8755;SDS011;4414;42.670;23.228;2022-07-23T01:54:36;8.30;;;5.25;;
8755;SDS011;4414;42.670;23.228;2022-07-23T01:57:05;8.77;;;5.65;;
8755;SDS011;4414;42.670;23.228;2022-07-23T01:59:33;7.15;;;5.88;;
8755;SDS011;4414;42.670;23.228;2022-07-23T02:02:00;6.60;;;5.25;;
8755;SDS011;4414;42.670;23.228;2022-07-23T02:04:28;6.28;;;5.28;;
8755;SDS011;4414;42.670;23.228;2022-07-23T02:06:55;13.90;;;5.53;;
8755;SDS011;4414;42.670;23.228;2022-07-23T02:09:22;12.77;;;5.45;;
8755;SDS011;4414;42.670;23.228;2022-07-23T02:11:49;14.07;;;5.45;;
8755;SDS011;4414;42.670;23.228;2022-07-23T02:14:17;11.25;;;5.00;;
8755;SDS011;4414;42.670;23.228;2022-07-23T02:16:43;12.50;;;6.00;;
8755;SDS011;4414;42.670;23.228;2022-07-23T02:19:10;8.35;;;5.25;;
8755;SDS011;4414;42.670;23.228;2022-07-23T02:21:37;7.32;;;5.50;;
8755;SDS011;4414;42.670;23.228;2022-07-23T02:24:04;5.70;;;5.18;;
8755;SDS011;4414;42.670;23.228;2022-07-23T02:26:31;7.32;;;5.82;;
8755;SDS011;4414;42.670;23.228;2022-07-23T02:28:59;10.32;;;5.68;;
8755;SDS011;4414;42.670;23.228;2022-07-23T02:31:28;6.75;;;5.38;;
8755;SDS011;4414;42.670;23.228;2022-07-23T02:33:55;10.13;;;5.68;;
8755;SDS011;4414;42.670;23.228;2022-07-23T02:36:22;9.75;;;5.60;;
8755;SDS011;4414;42.670;23.228;2022-07-23T02:38:49;9.45;;;5.63;;
8755;SDS011;4414;42.670;23.228;2022-07-23T02:41:16;8.43;;;5.03;;
8755;SDS011;4414;42.670;23.228;2022-07-23T02:43:43;8.20;;;5.38;;
8755;SDS011;4414;42.670;23.228;2022-07-23T02:46:09;7.55;;;4.57;;
8755;SDS011;4414;42.670;23.228;2022-07-23T02:48:38;10.18;;;4.57;;
8755;SDS011;4414;42.670;23.228;2022-07-23T02:51:05;5.60;;;4.53;;
8755;SDS011;4414;42.670;23.228;2022-07-23T02:53:31;8.85;;;5.00;;
8755;SDS011;4414;42.670;23.228;2022-07-23T02:55:58;9.50;;;4.70;;
8755;SDS011;4414;42.670;23.228;2022-07-23T02:58:25;11.07;;;5.20;;
8755;SDS011;4414;42.670;23.228;2022-07-23T03:00:52;8.98;;;4.35;;
8755;SDS011;4414;42.670;23.228;2022-07-23T03:03:19;6.45;;;4.28;;
8755;SDS011;4414;42.670;23.228;2022-07-23T03:05:47;6.30;;;4.43;;
8755;SDS011;4414;42.670;23.228;2022-07-23T03:08:14;6.82;;;4.55;;
8755;SDS011;4414;42.670;23.228;2022-07-23T03:10:40;11.95;;;4.63;;
8755;SDS011;4414;42.670;23.228;2022-07-23T03:13:07;9.18;;;5.20;;
8755;SDS011;4414;42.670;23.228;2022-07-23T03:15:34;6.95;;;4.63;;
8755;SDS011;4414;42.670;23.228;2022-07-23T03:18:01;8.13;;;5.10;;
8755;SDS011;4414;42.670;23.228;2022-07-23T03:20:28;4.35;;;4.00;;
8755;SDS011;4414;42.670;23.228;2022-07-23T03:22:56;12.68;;;4.50;;
8755;SDS011;4414;42.670;23.228;2022-07-23T03:25:23;9.52;;;4.45;;
8755;SDS011;4414;42.670;23.228;2022-07-23T03:27:49;8.00;;;4.68;;
8755;SDS011;4414;42.670;23.228;2022-07-23T03:30:16;5.55;;;4.85;;
8755;SDS011;4414;42.670;23.228;2022-07-23T03:32:43;9.10;;;4.68;;
8755;SDS011;4414;42.670;23.228;2022-07-23T03:35:10;9.05;;;4.97;;
8755;SDS011;4414;42.670;23.228;2022-07-23T03:37:37;11.45;;;4.90;;
8755;SDS011;4414;42.670;23.228;2022-07-23T03:40:05;6.05;;;5.35;;
8755;SDS011;4414;42.670;23.228;2022-07-23T03:42:33;7.18;;;4.70;;
8755;SDS011;4414;42.670;23.228;2022-07-23T03:45:01;7.80;;;4.40;;
8755;SDS011;4414;42.670;23.228;2022-07-23T03:47:28;6.30;;;4.40;;
8755;SDS011;4414;42.670;23.228;2022-07-23T03:49:54;10.20;;;5.25;;
8755;SDS011;4414;42.670;23.228;2022-07-23T03:52:21;6.18;;;4.70;;
8755;SDS011;4414;42.670;23.228;2022-07-23T03:54:48;5.90;;;5.10;;
8755;SDS011;4414;42.670;23.228;2022-07-23T03:57:16;5.38;;;4.60;;
8755;SDS011;4414;42.670;23.228;2022-07-23T03:59:43;10.82;;;5.15;;
8755;SDS011;4414;42.670;23.228;2022-07-23T04:02:09;7.65;;;5.15;;
8755;SDS011;4414;42.670;23.228;2022-07-23T04:04:36;7.32;;;5.10;;
8755;SDS011;4414;42.670;23.228;2022-07-23T04:07:03;8.82;;;4.60;;
8755;SDS011;4414;42.670;23.228;2022-07-23T04:09:30;5.78;;;4.50;;
8755;SDS011;4414;42.670;23.228;2022-07-23T04:11:56;8.35;;;5.18;;
8755;SDS011;4414;42.670;23.228;2022-07-23T04:14:24;6.28;;;5.30;;
8755;SDS011;4414;42.670;23.228;2022-07-23T04:16:51;8.38;;;5.70;;
8755;SDS011;4414;42.670;23.228;2022-07-23T04:19:18;6.53;;;5.18;;
8755;SDS011;4414;42.670;23.228;2022-07-23T04:21:45;11.18;;;4.88;;
8755;SDS011;4414;42.670;23.228;2022-07-23T04:24:11;7.00;;;5.38;;
8755;SDS011;4414;42.670;23.228;2022-07-23T04:26:38;11.75;;;5.72;;
8755;SDS011;4414;42.670;23.228;2022-07-23T04:29:05;9.82;;;5.88;;
8755;SDS011;4414;42.670;23.228;2022-07-23T04:31:33;6.07;;;5.47;;
8755;SDS011;4414;42.670;23.228;2022-07-23T04:34:00;8.32;;;6.93;;
8755;SDS011;4414;42.670;23.228;2022-07-23T04:36:26;13.95;;;7.00;;
8755;SDS011;4414;42.670;23.228;2022-07-23T04:38:53;9.02;;;6.05;;
8755;SDS011;4414;42.670;23.228;2022-07-23T04:41:20;10.30;;;6.50;;
8755;SDS011;4414;42.670;23.228;2022-07-23T04:43:47;7.53;;;6.40;;
8755;SDS011;4414;42.670;23.228;2022-07-23T04:46:14;9.52;;;6.75;;
8755;SDS011;4414;42.670;23.228;2022-07-23T04:48:42;9.25;;;6.57;;
8755;SDS011;4414;42.670;23.228;2022-07-23T04:51:09;8.77;;;7.00;;
8755;SDS011;4414;42.670;23.228;2022-07-23T04:53:36;10.77;;;6.75;;
8755;SDS011;4414;42.670;23.228;2022-07-23T04:56:04;7.53;;;6.38;;
8755;SDS011;4414;42.670;23.228;2022-07-23T04:58:30;8.30;;;6.43;;
8755;SDS011;4414;42.670;23.228;2022-07-23T05:00:57;7.70;;;6.28;;
8755;SDS011;4414;42.670;23.228;2022-07-23T05:03:24;7.85;;;6.90;;
8755;SDS011;4414;42.670;23.228;2022-07-23T05:05:52;10.70;;;6.63;;
8755;SDS011;4414;42.670;23.228;2022-07-23T05:08:19;10.00;;;6.45;;
8755;SDS011;4414;42.670;23.228;2022-07-23T05:10:46;9.98;;;6.35;;
8755;SDS011;4414;42.670;23.228;2022-07-23T05:13:13;11.27;;;6.85;;
8755;SDS011;4414;42.670;23.228;2022-07-23T05:15:40;12.65;;;7.15;;
8755;SDS011;4414;42.670;23.228;2022-07-23T05:18:07;9.77;;;6.28;;
8755;SDS011;4414;42.670;23.228;2022-07-23T05:20:34;10.23;;;6.32;;
8755;SDS011;4414;42.670;23.228;2022-07-23T05:23:02;8.63;;;6.20;;
8755;SDS011;4414;42.670;23.228;2022-07-23T05:25:29;14.15;;;6.60;;
8755;SDS011;4414;42.670;23.228;2022-07-23T05:27:56;10.43;;;6.50;;
8755;SDS011;4414;42.670;23.228;2022-07-23T05:30:22;7.57;;;6.47;;
8755;SDS011;4414;42.670;23.228;2022-07-23T05:32:49;8.60;;;6.13;;
8755;SDS011;4414;42.670;23.228;2022-07-23T05:40:20;6.80;;;6.10;;
8755;SDS011;4414;42.670;23.228;2022-07-23T05:42:47;8.38;;;6.40;;
8755;SDS011;4414;42.670;23.228;2022-07-23T05:45:14;13.25;;;6.78;;
8755;SDS011;4414;42.670;23.228;2022-07-23T05:47:45;7.18;;;6.32;;
8755;SDS011;4414;42.670;23.228;2022-07-23T05:50:13;10.07;;;6.68;;
8755;SDS011;4414;42.670;23.228;2022-07-23T05:52:41;8.60;;;6.35;;
8755;SDS011;4414;42.670;23.228;2022-07-23T05:55:08;8.40;;;6.85;;
8755;SDS011;4414;42.670;23.228;2022-07-23T05:57:38;10.35;;;7.35;;
8755;SDS011;4414;42.670;23.228;2022-07-23T06:00:07;10.07;;;6.70;;
8755;SDS011;4414;42.670;23.228;2022-07-23T06:02:35;12.57;;;7.93;;
8755;SDS011;4414;42.670;23.228;2022-07-23T06:05:03;13.00;;;7.28;;
8755;SDS011;4414;42.670;23.228;2022-07-23T06:07:30;9.80;;;6.97;;
8755;SDS011;4414;42.670;23.228;2022-07-23T06:09:57;13.00;;;7.07;;
8755;SDS011;4414;42.670;23.228;2022-07-23T06:12:24;13.38;;;7.47;;
8755;SDS011;4414;42.670;23.228;2022-07-23T06:14:52;12.40;;;7.57;;
8755;SDS011;4414;42.670;23.228;2022-07-23T06:17:19;11.35;;;7.10;;
8755;SDS011;4414;42.670;23.228;2022-07-23T06:19:46;11.55;;;7.28;;
8755;SDS011;4414;42.670;23.228;2022-07-23T06:22:12;17.92;;;7.25;;
8755;SDS011;4414;42.670;23.228;2022-07-23T06:24:39;12.40;;;7.65;;
8755;SDS011;4414;42.670;23.228;2022-07-23T06:27:06;14.60;;;7.03;;
8755;SDS011;4414;42.670;23.228;2022-07-23T06:29:33;12.50;;;7.53;;
8755;SDS011;4414;42.670;23.228;2022-07-23T06:32:01;8.95;;;7.22;;
8755;SDS011;4414;42.670;23.228;2022-07-23T06:34:28;10.63;;;7.30;;
8755;SDS011;4414;42.670;23.228;2022-07-23T06:36:54;10.88;;;7.85;;
8755;SDS011;4414;42.670;23.228;2022-07-23T06:39:21;11.75;;;7.13;;
8755;SDS011;4414;42.670;23.228;2022-07-23T06:41:48;13.57;;;7.30;;
8755;SDS011;4414;42.670;23.228;2022-07-23T06:44:15;15.13;;;8.20;;
8755;SDS011;4414;42.670;23.228;2022-07-23T06:46:41;12.15;;;6.90;;
8755;SDS011;4414;42.670;23.228;2022-07-23T06:49:10;15.73;;;7.60;;
8755;SDS011;4414;42.670;23.228;2022-07-23T06:51:36;14.90;;;7.70;;
8755;SDS011;4414;42.670;23.228;2022-07-23T06:54:03;12.18;;;6.65;;
8755;SDS011;4414;42.670;23.228;2022-07-23T06:56:30;16.23;;;7.25;;
8755;SDS011;4414;42.670;23.228;2022-07-23T06:58:57;11.00;;;6.88;;
8755;SDS011;4414;42.670;23.228;2022-07-23T07:01:24;12.63;;;7.85;;
8755;SDS011;4414;42.670;23.228;2022-07-23T07:03:51;13.02;;;7.90;;
8755;SDS011;4414;42.670;23.228;2022-07-23T07:06:19;17.58;;;9.27;;
8755;SDS011;4414;42.670;23.228;2022-07-23T07:08:46;13.25;;;7.60;;
8755;SDS011;4414;42.670;23.228;2022-07-23T07:11:13;9.25;;;7.78;;
8755;SDS011;4414;42.670;23.228;2022-07-23T07:13:40;8.93;;;6.80;;
8755;SDS011;4414;42.670;23.228;2022-07-23T07:16:07;8.48;;;7.60;;
8755;SDS011;4414;42.670;23.228;2022-07-23T07:18:33;8.52;;;7.30;;
8755;SDS011;4414;42.670;23.228;2022-07-23T07:21:00;10.98;;;7.22;;
8755;SDS011;4414;42.670;23.228;2022-07-23T07:23:28;12.45;;;7.20;;
8755;SDS011;4414;42.670;23.228;2022-07-23T07:25:55;11.35;;;7.00;;
8755;SDS011;4414;42.670;23.228;2022-07-23T07:28:22;9.80;;;7.10;;
8755;SDS011;4414;42.670;23.228;2022-07-23T07:30:48;8.52;;;7.07;;
8755;SDS011;4414;42.670;23.228;2022-07-23T07:33:15;16.33;;;7.90;;
8755;SDS011;4414;42.670;23.228;2022-07-23T07:35:42;9.88;;;6.97;;
8755;SDS011;4414;42.670;23.228;2022-07-23T07:38:09;8.55;;;7.25;;
8755;SDS011;4414;42.670;23.228;2022-07-23T07:40:37;11.88;;;7.90;;
8755;SDS011;4414;42.670;23.228;2022-07-23T07:43:04;11.20;;;7.55;;
8755;SDS011;4414;42.670;23.228;2022-07-23T07:45:31;13.57;;;7.63;;
8755;SDS011;4414;42.670;23.228;2022-07-23T07:47:57;9.25;;;7.15;;
8755;SDS011;4414;42.670;23.228;2022-07-23T07:50:25;9.15;;;7.35;;
8755;SDS011;4414;42.670;23.228;2022-07-23T07:52:51;12.38;;;7.40;;
8755;SDS011;4414;42.670;23.228;2022-07-23T07:55:18;12.60;;;8.18;;
8755;SDS011;4414;42.670;23.228;2022-07-23T07:57:46;13.18;;;7.78;;
8755;SDS011;4414;42.670;23.228;2022-07-23T08:00:13;13.65;;;8.40;;
8755;SDS011;4414;42.670;23.228;2022-07-23T08:02:41;15.25;;;8.05;;
8755;SDS011;4414;42.670;23.228;2022-07-23T08:05:09;10.38;;;7.40;;
8755;SDS011;4414;42.670;23.228;2022-07-23T08:07:36;17.23;;;8.32;;
8755;SDS011;4414;42.670;23.228;2022-07-23T08:10:05;14.65;;;8.02;;
8755;SDS011;4414;42.670;23.228;2022-07-23T08:12:39;11.48;;;7.40;;
8755;SDS011;4414;42.670;23.228;2022-07-23T08:15:08;13.32;;;8.25;;
8755;SDS011;4414;42.670;23.228;2022-07-23T08:17:35;12.63;;;8.18;;
8755;SDS011;4414;42.670;23.228;2022-07-23T08:20:02;13.85;;;9.00;;
8755;SDS011;4414;42.670;23.228;2022-07-23T08:22:47;10.23;;;8.18;;
8755;SDS011;4414;42.670;23.228;2022-07-23T08:25:16;13.80;;;8.07;;
8755;SDS011;4414;42.670;23.228;2022-07-23T08:27:46;12.05;;;8.40;;
8755;SDS011;4414;42.670;23.228;2022-07-23T08:30:15;14.65;;;8.35;;
8755;SDS011;4414;42.670;23.228;2022-07-23T08:32:49;11.15;;;8.70;;
8755;SDS011;4414;42.670;23.228;2022-07-23T08:35:20;11.43;;;8.02;;
8755;SDS011;4414;42.670;23.228;2022-07-23T08:37:48;13.30;;;8.27;;
8755;SDS011;4414;42.670;23.228;2022-07-23T08:40:15;11.02;;;7.80;;
8755;SDS011;4414;42.670;23.228;2022-07-23T08:42:42;11.18;;;8.00;;
8755;SDS011;4414;42.670;23.228;2022-07-23T08:45:10;12.52;;;8.27;;
8755;SDS011;4414;42.670;23.228;2022-07-23T08:47:40;11.45;;;7.82;;
8755;SDS011;4414;42.670;23.228;2022-07-23T08:50:07;12.50;;;8.55;;
8755;SDS011;4414;42.670;23.228;2022-07-23T08:52:35;12.80;;;8.00;;
8755;SDS011;4414;42.670;23.228;2022-07-23T08:55:03;12.85;;;8.07;;
8755;SDS011;4414;42.670;23.228;2022-07-23T08:57:31;14.38;;;7.88;;
8755;SDS011;4414;42.670;23.228;2022-07-23T08:59:58;16.90;;;8.10;;
8755;SDS011;4414;42.670;23.228;2022-07-23T09:02:25;14.38;;;8.30;;
8755;SDS011;4414;42.670;23.228;2022-07-23T09:04:53;17.38;;;8.73;;
8755;SDS011;4414;42.670;23.228;2022-07-23T09:07:19;11.52;;;7.97;;
8755;SDS011;4414;42.670;23.228;2022-07-23T09:09:46;11.35;;;8.40;;
8755;SDS011;4414;42.670;23.228;2022-07-23T09:12:13;10.68;;;8.18;;
8755;SDS011;4414;42.670;23.228;2022-07-23T09:14:40;25.92;;;11.32;;
8755;SDS011;4414;42.670;23.228;2022-07-23T09:17:09;12.30;;;9.02;;
8755;SDS011;4414;42.670;23.228;2022-07-23T09:19:36;11.20;;;7.63;;
8755;SDS011;4414;42.670;23.228;2022-07-23T09:22:23;17.20;;;7.20;;
8755;SDS011;4414;42.670;23.228;2022-07-23T09:25:06;10.88;;;7.72;;
8755;SDS011;4414;42.670;23.228;2022-07-23T09:27:48;10.07;;;7.43;;
8755;SDS011;4414;42.670;23.228;2022-07-23T09:30:17;13.85;;;7.63;;
8755;SDS011;4414;42.670;23.228;2022-07-23T09:32:44;10.10;;;7.78;;
8755;SDS011;4414;42.670;23.228;2022-07-23T09:35:43;8.70;;;6.50;;
8755;SDS011;4414;42.670;23.228;2022-07-23T09:38:12;12.38;;;7.10;;
8755;SDS011;4414;42.670;23.228;2022-07-23T09:40:39;8.35;;;6.47;;
8755;SDS011;4414;42.670;23.228;2022-07-23T09:43:06;10.40;;;7.50;;
8755;SDS011;4414;42.670;23.228;2022-07-23T09:45:33;12.88;;;7.35;;
8755;SDS011;4414;42.670;23.228;2022-07-23T09:48:09;8.23;;;6.40;;
8755;SDS011;4414;42.670;23.228;2022-07-23T09:50:36;8.73;;;6.65;;
8755;SDS011;4414;42.670;23.228;2022-07-23T09:53:03;13.32;;;6.93;;
8755;SDS011;4414;42.670;23.228;2022-07-23T09:55:32;7.43;;;6.60;;
8755;SDS011;4414;42.670;23.228;2022-07-23T09:58:02;11.10;;;6.57;;
8755;SDS011;4414;42.670;23.228;2022-07-23T10:00:29;7.70;;;6.95;;
8755;SDS011;4414;42.670;23.228;2022-07-23T10:02:57;6.90;;;6.13;;
8755;SDS011;4414;42.670;23.228;2022-07-23T10:05:24;7.25;;;5.82;;
8755;SDS011;4414;42.670;23.228;2022-07-23T10:07:51;8.68;;;6.78;;
8755;SDS011;4414;42.670;23.228;2022-07-23T10:10:19;10.55;;;6.88;;
8755;SDS011;4414;42.670;23.228;2022-07-23T10:12:49;9.80;;;6.38;;
8755;SDS011;4414;42.670;23.228;2022-07-23T10:15:41;19.30;;;6.80;;
8755;SDS011;4414;42.670;23.228;2022-07-23T10:18:09;9.45;;;6.47;;
8755;SDS011;4414;42.670;23.228;2022-07-23T10:20:38;8.48;;;5.68;;
8755;SDS011;4414;42.670;23.228;2022-07-23T10:23:08;9.30;;;6.60;;
8755;SDS011;4414;42.670;23.228;2022-07-23T10:25:49;8.82;;;6.00;;
8755;SDS011;4414;42.670;23.228;2022-07-23T10:31:26;5.72;;;5.10;;
8755;SDS011;4414;42.670;23.228;2022-07-23T10:34:02;11.80;;;4.82;;
8755;SDS011;4414;42.670;23.228;2022-07-23T10:36:39;10.18;;;4.90;;
8755;SDS011;4414;42.670;23.228;2022-07-23T10:39:14;9.23;;;5.28;;
8755;SDS011;4414;42.670;23.228;2022-07-23T10:41:45;10.35;;;5.18;;
8755;SDS011;4414;42.670;23.228;2022-07-23T10:44:14;8.60;;;5.45;;
8755;SDS011;4414;42.670;23.228;2022-07-23T10:46:55;8.40;;;4.68;;
8755;SDS011;4414;42.670;23.228;2022-07-23T10:49:40;8.32;;;5.15;;
8755;SDS011;4414;42.670;23.228;2022-07-23T10:52:21;10.88;;;5.13;;
8755;SDS011;4414;42.670;23.228;2022-07-23T10:54:50;7.95;;;4.88;;
8755;SDS011;4414;42.670;23.228;2022-07-23T10:57:19;10.40;;;5.20;;
8755;SDS011;4414;42.670;23.228;2022-07-23T11:02:48;7.03;;;5.25;;
8755;SDS011;4414;42.670;23.228;2022-07-23T11:05:17;5.95;;;4.45;;
8755;SDS011;4414;42.670;23.228;2022-07-23T11:10:40;5.35;;;4.30;;
8755;SDS011;4414;42.670;23.228;2022-07-23T11:16:13;9.25;;;4.65;;
8755;SDS011;4414;42.670;23.228;2022-07-23T11:18:54;8.95;;;5.30;;
8755;SDS011;4414;42.670;23.228;2022-07-23T11:24:24;10.07;;;5.03;;
8755;SDS011;4414;42.670;23.228;2022-07-23T11:26:55;11.18;;;4.20;;
8755;SDS011;4414;42.670;23.228;2022-07-23T11:29:43;7.80;;;4.03;;
8755;SDS011;4414;42.670;23.228;2022-07-23T11:32:31;6.55;;;4.35;;
8755;SDS011;4414;42.670;23.228;2022-07-23T11:35:20;7.70;;;4.50;;
8755;SDS011;4414;42.670;23.228;2022-07-23T11:37:48;14.45;;;5.05;;
8755;SDS011;4414;42.670;23.228;2022-07-23T11:40:19;9.98;;;4.63;;
8755;SDS011;4414;42.670;23.228;2022-07-23T11:42:51;11.45;;;4.40;;
8755;SDS011;4414;42.670;23.228;2022-07-23T11:45:19;9.82;;;4.88;;
8755;SDS011;4414;42.670;23.228;2022-07-23T11:47:48;6.53;;;4.50;;
8755;SDS011;4414;42.670;23.228;2022-07-23T11:50:15;19.48;;;5.05;;
8755;SDS011;4414;42.670;23.228;2022-07-23T11:52:41;5.78;;;3.83;;
8755;SDS011;4414;42.670;23.228;2022-07-23T11:55:09;14.43;;;4.57;;
8755;SDS011;4414;42.670;23.228;2022-07-23T11:57:38;10.77;;;4.85;;
8755;SDS011;4414;42.670;23.228;2022-07-23T12:00:07;9.32;;;4.22;;
8755;SDS011;4414;42.670;23.228;2022-07-23T12:02:36;12.15;;;4.72;;
8755;SDS011;4414;42.670;23.228;2022-07-23T12:05:06;9.48;;;4.70;;
8755;SDS011;4414;42.670;23.228;2022-07-23T12:07:35;10.18;;;4.55;;
8755;SDS011;4414;42.670;23.228;2022-07-23T12:10:04;6.65;;;4.47;;
8755;SDS011;4414;42.670;23.228;2022-07-23T12:12:36;8.27;;;4.25;;
8755;SDS011;4414;42.670;23.228;2022-07-23T12:15:04;11.02;;;4.38;;
8755;SDS011;4414;42.670;23.228;2022-07-23T12:17:32;9.88;;;4.70;;
8755;SDS011;4414;42.670;23.228;2022-07-23T12:20:01;9.32;;;4.90;;
8755;SDS011;4414;42.670;23.228;2022-07-23T12:22:34;14.10;;;4.65;;
8755;SDS011;4414;42.670;23.228;2022-07-23T12:25:03;15.05;;;4.47;;
8755;SDS011;4414;42.670;23.228;2022-07-23T12:27:32;11.05;;;4.60;;
8755;SDS011;4414;42.670;23.228;2022-07-23T12:30:14;10.93;;;4.47;;
8755;SDS011;4414;42.670;23.228;2022-07-23T12:32:46;12.13;;;5.30;;
8755;SDS011;4414;42.670;23.228;2022-07-23T12:35:15;9.35;;;4.70;;
8755;SDS011;4414;42.670;23.228;2022-07-23T12:37:44;14.77;;;5.20;;
8755;SDS011;4414;42.670;23.228;2022-07-23T12:40:19;7.63;;;5.10;;
8755;SDS011;4414;42.670;23.228;2022-07-23T12:42:50;7.55;;;4.50;;
8755;SDS011;4414;42.670;23.228;2022-07-23T12:45:19;6.68;;;4.25;;
8755;SDS011;4414;42.670;23.228;2022-07-23T12:47:53;13.93;;;5.22;;
8755;SDS011;4414;42.670;23.228;2022-07-23T12:50:43;12.30;;;4.80;;
8755;SDS011;4414;42.670;23.228;2022-07-23T12:53:16;10.30;;;4.57;;
8755;SDS011;4414;42.670;23.228;2022-07-23T12:55:44;11.00;;;4.50;;
8755;SDS011;4414;42.670;23.228;2022-07-23T12:58:14;10.88;;;4.90;;
8755;SDS011;4414;42.670;23.228;2022-07-23T13:00:55;15.77;;;4.85;;
8755;SDS011;4414;42.670;23.228;2022-07-23T13:03:28;10.32;;;4.95;;
8755;SDS011;4414;42.670;23.228;2022-07-23T13:05:57;9.77;;;4.72;;
8755;SDS011;4414;42.670;23.228;2022-07-23T13:08:27;15.63;;;5.10;;
8755;SDS011;4414;42.670;23.228;2022-07-23T13:10:55;16.27;;;4.70;;
8755;SDS011;4414;42.670;23.228;2022-07-23T13:13:23;11.30;;;4.47;;
8755;SDS011;4414;42.670;23.228;2022-07-23T13:15:52;10.30;;;4.75;;
8755;SDS011;4414;42.670;23.228;2022-07-23T13:18:19;8.57;;;4.05;;
8755;SDS011;4414;42.670;23.228;2022-07-23T13:20:46;6.03;;;4.35;;
8755;SDS011;4414;42.670;23.228;2022-07-23T13:23:14;10.60;;;5.07;;
8755;SDS011;4414;42.670;23.228;2022-07-23T13:25:43;7.45;;;5.00;;
8755;SDS011;4414;42.670;23.228;2022-07-23T13:28:10;7.75;;;4.68;;
8755;SDS011;4414;42.670;23.228;2022-07-23T13:30:37;9.02;;;4.47;;
8755;SDS011;4414;42.670;23.228;2022-07-23T13:33:04;10.10;;;4.53;;
8755;SDS011;4414;42.670;23.228;2022-07-23T13:35:31;10.55;;;4.38;;
8755;SDS011;4414;42.670;23.228;2022-07-23T13:37:59;8.57;;;4.50;;
8755;SDS011;4414;42.670;23.228;2022-07-23T13:40:26;7.28;;;4.18;;
8755;SDS011;4414;42.670;23.228;2022-07-23T13:42:54;4.75;;;4.03;;
8755;SDS011;4414;42.670;23.228;2022-07-23T13:45:21;8.55;;;4.00;;
8755;SDS011;4414;42.670;23.228;2022-07-23T13:47:48;7.55;;;3.70;;
8755;SDS011;4414;42.670;23.228;2022-07-23T13:50:15;16.63;;;4.28;;
8755;SDS011;4414;42.670;23.228;2022-07-23T13:52:42;5.28;;;3.85;;
8755;SDS011;4414;42.670;23.228;2022-07-23T13:55:09;8.98;;;4.22;;
8755;SDS011;4414;42.670;23.228;2022-07-23T13:57:36;6.82;;;4.00;;
8755;SDS011;4414;42.670;23.228;2022-07-23T14:00:05;8.50;;;4.30;;
8755;SDS011;4414;42.670;23.228;2022-07-23T14:02:35;9.50;;;4.25;;
8755;SDS011;4414;42.670;23.228;2022-07-23T14:05:03;7.22;;;4.43;;
8755;SDS011;4414;42.670;23.228;2022-07-23T14:07:31;10.77;;;4.63;;
8755;SDS011;4414;42.670;23.228;2022-07-23T14:09:57;8.27;;;4.55;;
8755;SDS011;4414;42.670;23.228;2022-07-23T14:12:24;6.38;;;4.15;;
8755;SDS011;4414;42.670;23.228;2022-07-23T14:14:51;9.18;;;4.05;;
8755;SDS011;4414;42.670;23.228;2022-07-23T14:17:20;9.25;;;4.25;;
8755;SDS011;4414;42.670;23.228;2022-07-23T14:19:47;6.95;;;4.40;;
8755;SDS011;4414;42.670;23.228;2022-07-23T14:22:13;6.50;;;3.85;;
8755;SDS011;4414;42.670;23.228;2022-07-23T14:24:40;6.45;;;4.50;;
8755;SDS011;4414;42.670;23.228;2022-07-23T14:27:07;11.30;;;4.68;;
8755;SDS011;4414;42.670;23.228;2022-07-23T14:29:34;7.90;;;4.63;;
8755;SDS011;4414;42.670;23.228;2022-07-23T14:32:02;10.45;;;5.30;;
8755;SDS011;4414;42.670;23.228;2022-07-23T14:34:31;14.65;;;5.07;;
8755;SDS011;4414;42.670;23.228;2022-07-23T14:36:58;9.27;;;4.85;;
8755;SDS011;4414;42.670;23.228;2022-07-23T14:39:25;9.85;;;4.18;;
8755;SDS011;4414;42.670;23.228;2022-07-23T14:41:52;8.80;;;4.55;;
8755;SDS011;4414;42.670;23.228;2022-07-23T14:44:18;6.20;;;4.30;;
8755;SDS011;4414;42.670;23.228;2022-07-23T14:46:45;9.73;;;4.53;;
8755;SDS011;4414;42.670;23.228;2022-07-23T14:49:12;10.75;;;4.72;;
8755;SDS011;4414;42.670;23.228;2022-07-23T14:51:40;8.90;;;5.13;;
8755;SDS011;4414;42.670;23.228;2022-07-23T14:54:07;11.98;;;4.70;;
8755;SDS011;4414;42.670;23.228;2022-07-23T14:56:34;6.43;;;4.68;;
8755;SDS011;4414;42.670;23.228;2022-07-23T14:59:01;9.40;;;4.25;;
8755;SDS011;4414;42.670;23.228;2022-07-23T15:01:28;8.48;;;4.93;;
8755;SDS011;4414;42.670;23.228;2022-07-23T15:03:55;6.53;;;4.43;;
8755;SDS011;4414;42.670;23.228;2022-07-23T15:06:22;11.07;;;4.90;;
8755;SDS011;4414;42.670;23.228;2022-07-23T15:08:50;10.32;;;4.70;;
8755;SDS011;4414;42.670;23.228;2022-07-23T15:11:17;9.05;;;4.43;;
8755;SDS011;4414;42.670;23.228;2022-07-23T15:13:44;9.75;;;4.88;;
8755;SDS011;4414;42.670;23.228;2022-07-23T15:16:10;7.70;;;4.40;;
8755;SDS011;4414;42.670;23.228;2022-07-23T15:18:37;6.85;;;4.47;;
8755;SDS011;4414;42.670;23.228;2022-07-23T15:21:04;7.53;;;4.40;;
8755;SDS011;4414;42.670;23.228;2022-07-23T15:23:31;13.77;;;5.38;;